Time;durP1;ratioP1;P1;durP2;ratioP2;P2;SDS_P1;SDS_P2;PMS_P1;PMS_P2;Temp;Humidity;BMP_temperature;BMP_pressure;BME280_temperature;BME280_humidity;BME280_pressure;Samples;Min_cycle;Max_cycle;Signal;HPM_P1;HPM_P2
2021/12/14 00:01:50;;;;;;;12.30;5.07;;;;;;;4.14;91.27;98457.06;5051687;28;20090;-57
2021/12/14 00:04:19;;;;;;;11.55;5.03;;;;;;;4.21;90.73;98455.34;5062170;28;20056;-57
2021/12/14 00:06:48;;;;;;;11.57;5.22;;;;;;;4.33;89.83;98452.16;5046466;28;20036;-57
2021/12/14 00:09:25;;;;;;;10.43;5.78;;;;;;;4.32;90.34;98464.75;5052347;28;20045;-57
2021/12/14 00:17:13;;;;;;;9.27;4.35;;;;;;;4.51;89.11;98457.16;5046647;28;20049;-57
2021/12/14 00:19:40;;;;;;;11.10;5.65;;;;;;;4.38;88.20;98464.00;5046011;28;20040;-57
2021/12/14 00:22:20;;;;;;;10.30;4.35;;;;;;;4.33;88.59;98465.56;5041295;28;20052;-57
2021/12/14 00:24:47;;;;;;;7.43;3.75;;;;;;;4.42;88.45;98464.47;5045633;28;20055;-57
2021/12/14 00:27:17;;;;;;;10.23;4.60;;;;;;;4.47;88.17;98461.25;5048605;28;20079;-56
2021/12/14 00:29:48;;;;;;;11.38;4.30;;;;;;;4.42;87.95;98464.47;5059546;28;20056;-56
2021/12/14 00:32:19;;;;;;;8.90;4.05;;;;;;;4.46;88.39;98468.44;5046289;28;20037;-56
2021/12/14 00:34:52;;;;;;;13.60;5.07;;;;;;;4.28;88.64;98471.50;5046743;28;20048;-55
2021/12/14 00:37:24;;;;;;;11.15;5.43;;;;;;;4.32;88.83;98469.28;5045780;28;20099;-55
2021/12/14 00:39:52;;;;;;;;;;;;;;;4.39;88.22;98467.53;5031166;28;20048;-54
2021/12/14 00:42:20;;;;;;;11.27;4.82;;;;;;;4.35;88.35;98477.78;5045462;28;19924;-53
2021/12/14 00:44:47;;;;;;;10.15;4.68;;;;;;;4.32;88.27;98483.53;5043036;28;20068;-58
2021/12/14 00:47:15;;;;;;;9.73;4.10;;;;;;;4.34;88.33;98483.31;5029365;28;20044;-54
2021/12/14 00:49:42;;;;;;;9.07;3.88;;;;;;;4.28;88.17;98496.47;5025747;28;20128;-56
2021/12/14 00:52:10;;;;;;;8.60;3.97;;;;;;;4.14;88.50;98482.03;5034129;28;20033;-58
2021/12/14 00:54:39;;;;;;;7.05;2.90;;;;;;;4.07;88.92;98483.78;5046223;28;20040;-57
2021/12/14 00:57:09;;;;;;;6.85;3.33;;;;;;;4.09;88.33;98489.78;5045756;28;20098;-57
2021/12/14 00:59:36;;;;;;;7.50;3.45;;;;;;;3.99;89.15;98487.38;5027856;28;20046;-57
2021/12/14 01:02:03;;;;;;;7.13;3.55;;;;;;;3.97;89.55;98496.59;5045140;28;20699;-56
2021/12/14 01:04:38;;;;;;;8.68;3.70;;;;;;;4.11;88.21;98503.84;5063635;28;20503;-57
2021/12/14 01:07:08;;;;;;;5.53;2.67;;;;;;;3.95;88.83;98509.34;5028346;28;20041;-55
2021/12/14 01:09:38;;;;;;;7.93;3.83;;;;;;;3.84;89.78;98497.22;5026438;28;20052;-56
2021/12/14 01:12:13;;;;;;;8.35;4.47;;;;;;;3.82;89.15;98500.06;5036603;28;20412;-55
2021/12/14 01:18:00;;;;;;;9.07;4.28;;;;;;;3.55;90.41;98506.81;5045131;28;20041;-53
2021/12/14 01:20:35;;;;;;;9.35;4.22;;;;;;;3.45;90.80;98509.72;5045959;28;20095;-52
2021/12/14 01:23:13;;;;;;;8.05;4.00;;;;;;;3.54;90.57;98505.97;5024885;28;20048;-57
2021/12/14 01:25:43;;;;;;;7.00;3.45;;;;;;;3.66;90.22;98501.03;5027166;28;20484;-56
2021/12/14 01:28:18;;;;;;;6.60;3.28;;;;;;;3.77;88.59;98511.31;5043838;28;20048;-52
2021/12/14 01:33:33;;;;;;;6.57;3.00;;;;;;;3.45;89.41;98520.41;5064343;28;20040;-57
2021/12/14 01:36:02;;;;;;;6.72;3.00;;;;;;;3.42;89.43;98526.16;5028849;28;20047;-53
2021/12/14 01:41:03;;;;;;;10.05;3.97;;;;;;;3.16;91.34;98520.09;5060695;28;20075;-55
2021/12/14 01:43:51;;;;;;;12.23;3.92;;;;;;;3.03;91.90;98511.81;5034381;28;20041;-56
2021/12/14 01:46:32;;;;;;;8.32;4.05;;;;;;;3.14;92.47;98513.25;5027745;28;20044;-57
2021/12/14 01:49:15;;;;;;;15.60;4.85;;;;;;;3.09;92.24;98511.09;5052476;28;20066;-57
2021/12/14 01:51:59;;;;;;;8.48;3.80;;;;;;;3.23;92.23;98515.72;5026906;28;20107;-53
2021/12/14 01:54:35;;;;;;;8.98;4.20;;;;;;;3.00;92.07;98510.31;5061142;28;20080;-56
2021/12/14 01:57:07;;;;;;;11.30;4.30;;;;;;;2.91;92.61;98519.38;5044201;28;20037;-55
2021/12/14 01:59:38;;;;;;;10.70;4.18;;;;;;;3.01;93.39;98511.97;5035690;28;20048;-57
2021/12/14 02:02:28;;;;;;;14.60;5.50;;;;;;;3.03;92.99;98520.66;5041054;28;20044;-56
2021/12/14 02:04:57;;;;;;;11.90;4.38;;;;;;;3.02;92.56;98513.63;5043791;28;20531;-55
2021/12/14 02:07:26;;;;;;;12.25;3.70;;;;;;;3.10;92.37;98516.28;5060989;28;20055;-55
2021/12/14 02:09:59;;;;;;;12.32;4.55;;;;;;;3.23;92.07;98509.50;5043617;28;20804;-57
2021/12/14 02:12:29;;;;;;;12.15;4.63;;;;;;;3.07;92.55;98510.44;5048272;28;20068;-58
2021/12/14 02:15:13;;;;;;;12.63;4.95;;;;;;;3.01;92.93;98503.94;5034930;28;20064;-58
2021/12/14 02:17:43;;;;;;;11.00;4.38;;;;;;;3.12;93.03;98506.25;5027700;28;20055;-57
2021/12/14 02:20:13;;;;;;;9.75;4.47;;;;;;;3.17;92.66;98503.00;5044229;28;20044;-54
2021/12/14 02:22:40;;;;;;;11.30;3.80;;;;;;;3.12;92.44;98505.41;5050805;28;20033;-57
2021/12/14 02:25:07;;;;;;;11.50;4.57;;;;;;;3.09;92.83;98508.41;5043321;28;20500;-53
2021/12/14 02:27:37;;;;;;;11.25;4.68;;;;;;;3.24;92.99;98503.97;5046488;28;20040;-56
2021/12/14 02:30:13;;;;;;;10.27;4.07;;;;;;;3.14;92.47;98500.72;5039358;28;20256;-56
2021/12/14 02:32:40;;;;;;;12.35;4.30;;;;;;;3.09;92.46;98505.72;5051935;28;20036;-57
2021/12/14 02:35:12;;;;;;;9.27;3.38;;;;;;;3.11;92.10;98507.25;5033737;28;20048;-57
2021/12/14 02:37:44;;;;;;;16.00;4.13;;;;;;;3.12;92.49;98498.22;5046703;28;20522;-58
2021/12/14 02:40:31;;;;;;;11.57;4.10;;;;;;;3.20;93.12;98497.31;5048269;28;20041;-57
2021/12/14 02:43:01;;;;;;;10.02;4.00;;;;;;;3.00;92.47;98491.59;5030979;28;20091;-56
2021/12/14 02:45:28;;;;;;;7.97;3.23;;;;;;;3.07;93.06;98497.06;5045060;28;20551;-56
2021/12/14 02:47:56;;;;;;;9.65;4.45;;;;;;;2.85;92.92;98499.50;5047931;28;20279;-57
2021/12/14 02:50:24;;;;;;;10.43;3.78;;;;;;;2.94;93.57;98498.47;5035686;28;20055;-55
2021/12/14 02:52:51;;;;;;;18.70;4.70;;;;;;;2.89;93.26;98508.00;5053228;28;20041;-53
2021/12/14 02:55:23;;;;;;;11.82;4.45;;;;;;;2.92;93.13;98503.16;5039064;28;20135;-57
2021/12/14 02:57:54;;;;;;;10.23;4.77;;;;;;;2.94;93.16;98493.09;5043292;28;20038;-57
2021/12/14 03:00:27;;;;;;;12.68;4.80;;;;;;;2.84;93.12;98481.81;5047526;28;20811;-55
2021/12/14 03:03:00;;;;;;;11.48;4.20;;;;;;;2.75;93.34;98485.50;5056232;28;20041;-57
2021/12/14 03:05:30;;;;;;;12.85;4.45;;;;;;;2.79;93.60;98485.00;5047220;28;20452;-55
2021/12/14 03:08:03;;;;;;;11.48;4.60;;;;;;;2.87;94.02;98478.75;5046830;28;20543;-55
2021/12/14 03:10:49;;;;;;;13.00;4.10;;;;;;;2.93;93.68;98477.22;5048005;28;20045;-53
2021/12/14 03:13:17;;;;;;;10.55;3.90;;;;;;;2.94;93.67;98481.56;5029902;28;20051;-53
2021/12/14 03:15:52;;;;;;;12.32;4.53;;;;;;;2.97;92.95;98484.75;5047809;28;20579;-53
2021/12/14 03:18:26;;;;;;;11.88;4.65;;;;;;;3.00;92.38;98483.56;5041093;28;20041;-58
2021/12/14 03:21:01;;;;;;;9.13;3.72;;;;;;;3.09;92.02;98495.03;5027306;28;20045;-57
2021/12/14 03:23:33;;;;;;;13.20;4.57;;;;;;;3.07;91.57;98491.72;5047623;28;20424;-57
2021/12/14 03:26:03;;;;;;;9.18;3.33;;;;;;;2.79;92.41;98494.84;5047591;28;20094;-57
2021/12/14 03:28:30;;;;;;;12.48;3.90;;;;;;;2.71;92.97;98493.88;5031230;28;20041;-57
2021/12/14 03:31:21;;;;;;;17.92;3.83;;;;;;;2.63;93.43;98499.25;5044236;28;20049;-54
2021/12/14 03:33:53;;;;;;;9.18;4.22;;;;;;;2.67;93.49;98495.25;5027949;28;20479;-55
2021/12/14 03:36:34;;;;;;;7.85;3.40;;;;;;;2.85;92.76;98497.66;5019680;28;20045;-58
2021/12/14 03:39:21;;;;;;;6.95;2.78;;;;;;;2.89;91.66;98502.66;5046862;28;20049;-57
2021/12/14 03:42:12;;;;;;;6.55;3.58;;;;;;;2.66;91.96;98501.59;5045052;28;20044;-57
2021/12/14 03:44:46;;;;;;;9.48;3.92;;;;;;;2.53;92.73;98503.97;5037848;28;20415;-56
2021/12/14 03:47:21;;;;;;;9.60;3.47;;;;;;;2.47;93.05;98503.66;5041814;28;20049;-58
2021/12/14 03:49:48;;;;;;;;;;;;;;;2.33;93.42;98507.03;5044295;28;20068;-55
2021/12/14 03:52:23;;;;;;;7.25;2.83;;;;;;;2.50;93.55;98515.84;5043510;28;19921;-56
2021/12/14 03:54:51;;;;;;;7.70;2.95;;;;;;;2.52;92.81;98524.53;5053028;28;20092;-53
2021/12/14 03:57:19;;;;;;;7.60;2.75;;;;;;;2.57;92.58;98532.88;5028983;28;20053;-53
2021/12/14 03:59:46;;;;;;;10.50;3.50;;;;;;;2.58;92.19;98528.38;5041205;28;20068;-51
2021/12/14 04:02:17;;;;;;;9.45;3.13;;;;;;;2.47;92.68;98517.00;5060692;28;20623;-55
2021/12/14 04:04:53;;;;;;;14.77;4.00;;;;;;;2.32;92.67;98513.41;5045284;28;20065;-52
2021/12/14 04:07:21;;;;;;;11.20;3.95;;;;;;;2.23;93.45;98515.25;5041614;28;20045;-53
2021/12/14 04:10:00;;;;;;;7.75;3.33;;;;;;;2.21;93.70;98499.38;5034668;28;20057;-57
2021/12/14 04:12:27;;;;;;;11.82;3.90;;;;;;;2.20;93.95;98492.38;5025966;28;20536;-56
2021/12/14 04:14:56;;;;;;;8.25;3.40;;;;;;;2.22;93.97;98494.88;5047314;28;20036;-58
2021/12/14 04:17:28;;;;;;;9.30;3.33;;;;;;;2.28;94.11;98498.69;5044942;28;20099;-53
2021/12/14 04:19:56;;;;;;;10.90;4.50;;;;;;;2.28;93.85;98490.69;5029437;28;20048;-53
2021/12/14 04:22:29;;;;;;;12.57;4.95;;;;;;;2.26;93.85;98487.34;5045435;28;20425;-54
2021/12/14 04:24:59;;;;;;;13.77;4.68;;;;;;;2.16;93.93;98488.38;5026223;28;20037;-59
2021/12/14 04:27:29;;;;;;;12.27;4.35;;;;;;;2.13;93.86;98490.56;5043244;28;20533;-57
2021/12/14 04:30:00;;;;;;;14.23;4.30;;;;;;;2.18;94.34;98483.66;5040824;28;20040;-57
2021/12/14 04:32:27;;;;;;;14.60;4.97;;;;;;;2.37;94.39;98475.44;5049494;28;20048;-58
2021/12/14 04:34:55;;;;;;;15.05;5.32;;;;;;;2.50;94.45;98485.63;5040221;28;20302;-57
2021/12/14 04:37:22;;;;;;;15.68;5.05;;;;;;;2.48;93.36;98477.75;5050438;28;20512;-59
2021/12/14 04:40:11;;;;;;;17.63;5.13;;;;;;;2.36;93.29;98465.75;5058234;28;20090;-60
2021/12/14 04:54:09;;;;;;;6.07;2.53;;;;;;;2.20;91.24;98443.41;5019826;28;20076;-59
2021/12/14 04:56:41;;;;;;;6.90;3.33;;;;;;;2.05;92.12;98433.44;5042339;28;20785;-57
2021/12/14 04:59:13;;;;;;;9.43;3.92;;;;;;;1.88;93.56;98437.16;5039794;28;20451;-56
2021/12/14 05:01:44;;;;;;;;;;;;;;;1.98;93.44;98461.03;5047186;28;20051;-59
2021/12/14 05:04:21;;;;;;;17.48;4.60;;;;;;;2.02;92.79;98457.81;5048289;28;20022;-58
2021/12/14 05:06:53;;;;;;;7.95;3.13;;;;;;;2.08;92.30;98456.31;5035312;28;20064;-56
2021/12/14 05:09:29;;;;;;;8.55;3.90;;;;;;;1.91;92.95;98447.47;5044234;28;20423;-56
2021/12/14 05:12:11;;;;;;;8.27;3.65;;;;;;;2.11;92.41;98469.34;5045451;28;20056;-59
2021/12/14 05:15:01;;;;;;;7.78;3.25;;;;;;;2.15;92.26;98491.19;5042690;28;20492;-56
2021/12/14 05:17:32;;;;;;;;;;;;;;;2.18;91.65;98485.53;5032069;28;20045;-59
2021/12/14 05:20:00;;;;;;;6.35;2.53;;;;;;;2.31;90.95;98476.97;5024493;28;19925;-58
2021/12/14 05:22:33;;;;;;;7.40;3.05;;;;;;;2.39;90.70;98478.78;5036643;28;20099;-57
2021/12/14 05:25:14;;;;;;;6.40;2.92;;;;;;;2.26;90.76;98480.16;5044111;28;20048;-59
2021/12/14 05:27:46;;;;;;;11.75;3.53;;;;;;;2.15;91.00;98470.66;5024947;28;20091;-58
2021/12/14 05:30:16;;;;;;;10.48;4.07;;;;;;;2.05;91.73;98459.31;5041172;28;20045;-58
2021/12/14 05:33:02;;;;;;;11.23;3.85;;;;;;;1.88;92.84;98453.19;5041032;28;20049;-59
2021/12/14 05:35:30;;;;;;;12.70;4.33;;;;;;;1.85;93.16;98445.50;5055437;28;20044;-57
2021/12/14 05:37:58;;;;;;;13.48;4.05;;;;;;;1.88;93.90;98439.81;5043003;28;20314;-58
2021/12/14 05:43:07;;;;;;;9.38;4.55;;;;;;;1.88;93.23;98450.50;5027790;28;20244;-58
2021/12/14 05:45:49;;;;;;;16.77;5.45;;;;;;;1.75;93.66;98445.66;5020155;28;20060;-59
2021/12/14 05:48:21;;;;;;;10.13;4.18;;;;;;;1.92;93.08;98439.31;5047409;28;20078;-59
2021/12/14 05:50:52;;;;;;;10.35;4.50;;;;;;;1.97;92.75;98459.31;5045403;28;20080;-57
2021/12/14 05:53:32;;;;;;;11.77;3.83;;;;;;;1.96;92.62;98469.19;5039443;28;20107;-59
2021/12/14 05:56:01;;;;;;;11.45;3.60;;;;;;;2.09;91.82;98447.28;5044542;28;20571;-59
2021/12/14 05:58:31;;;;;;;;;;;;;;;2.01;91.53;98445.47;5045911;28;20041;-60
2021/12/14 06:01:05;;;;;;;9.60;3.92;;;;;;;2.00;91.62;98437.63;5047974;28;20438;-59
2021/12/14 06:03:39;;;;;;;8.27;4.20;;;;;;;1.63;92.92;98427.34;5054791;28;20037;-58
2021/12/14 06:06:15;;;;;;;7.43;3.53;;;;;;;1.39;92.59;98433.50;5030335;28;20037;-59
2021/12/14 06:08:41;;;;;;;11.27;4.53;;;;;;;1.48;92.56;98450.34;5048258;28;20044;-59
2021/12/14 06:11:23;;;;;;;6.90;2.67;;;;;;;1.58;91.56;98448.34;5029934;28;20049;-59
2021/12/14 06:13:50;;;;;;;9.80;3.90;;;;;;;1.57;91.34;98441.34;5046956;28;20057;-58
2021/12/14 06:16:30;;;;;;;7.13;3.70;;;;;;;1.34;91.99;98427.81;5047787;28;20049;-58
2021/12/14 06:19:16;;;;;;;7.40;3.22;;;;;;;1.32;92.01;98425.31;5045398;28;20049;-60
2021/12/14 06:21:48;;;;;;;7.35;3.67;;;;;;;1.23;92.81;98423.66;5047576;28;20091;-59
2021/12/14 06:24:14;;;;;;;9.18;4.15;;;;;;;1.20;92.61;98413.31;5046768;28;20033;-59
2021/12/14 06:26:50;;;;;;;7.97;4.07;;;;;;;1.29;92.80;98418.50;5047594;28;20045;-59
2021/12/14 06:29:22;;;;;;;6.18;3.10;;;;;;;1.52;92.29;98430.34;5048116;28;20052;-59
2021/12/14 06:31:49;;;;;;;7.07;3.40;;;;;;;1.40;91.52;98424.50;5047655;28;20049;-59
2021/12/14 06:34:27;;;;;;;6.80;3.22;;;;;;;1.34;92.23;98426.00;5030421;28;20045;-58
2021/12/14 06:37:20;;;;;;;6.95;3.65;;;;;;;1.54;92.90;98433.66;5010758;28;20049;-59
2021/12/14 06:39:58;;;;;;;6.28;3.10;;;;;;;1.60;91.99;98427.66;5030635;28;20045;-59
2021/12/14 06:42:25;;;;;;;7.90;3.65;;;;;;;1.51;91.37;98420.66;5039156;28;20041;-59
2021/12/14 06:45:08;;;;;;;16.35;8.85;;;;;;;1.43;91.38;98417.00;5043744;28;20056;-59
2021/12/14 06:47:35;;;;;;;7.82;4.13;;;;;;;1.55;91.36;98408.66;5048994;28;20042;-57
2021/12/14 06:50:05;;;;;;;16.35;9.57;;;;;;;1.40;91.84;98403.16;5028294;28;20497;-59
2021/12/14 06:52:32;;;;;;;12.15;7.57;;;;;;;1.55;92.90;98400.66;5047717;28;20099;-58
2021/12/14 06:55:21;;;;;;;83.28;48.88;;;;;;;1.55;91.79;98403.31;5045396;28;20045;-58
2021/12/14 06:58:09;;;;;;;31.83;20.23;;;;;;;1.53;91.78;98394.63;5033861;28;20052;-59
2021/12/14 07:00:41;;;;;;;26.42;15.35;;;;;;;1.69;92.33;98391.94;5047406;28;20041;-58
2021/12/14 07:03:08;;;;;;;13.82;8.95;;;;;;;1.73;90.33;98384.41;5058101;28;20045;-58
2021/12/14 07:05:42;;;;;;;11.85;7.43;;;;;;;1.72;nan;98376.56;5036355;28;20052;-59
2021/12/14 07:08:15;;;;;;;8.35;4.82;;;;;;;1.85;90.03;98368.03;5043947;28;20045;-60
2021/12/14 07:10:44;;;;;;;14.95;8.77;;;;;;;1.76;89.70;98359.22;5038318;28;20045;-59
2021/12/14 07:13:18;;;;;;;8.35;3.70;;;;;;;1.82;89.68;98350.53;5045066;28;20057;-59
2021/12/14 07:15:45;;;;;;;7.00;3.10;;;;;;;1.94;89.04;98356.31;5041903;28;20048;-59
2021/12/14 07:18:13;;;;;;;10.20;6.28;;;;;;;1.80;88.95;98373.88;5050150;28;20052;-59
2021/12/14 07:20:51;;;;;;;5.22;3.10;;;;;;;2.02;87.98;98388.38;5048410;28;20107;-58
2021/12/14 07:23:33;;;;;;;4.57;2.40;;;;;;;2.07;87.46;98382.53;5037547;28;20041;-58
2021/12/14 07:26:07;;;;;;;4.13;2.10;;;;;;;2.10;87.51;98390.16;5041754;28;20183;-61
2021/12/14 07:28:57;;;;;;;4.82;2.55;;;;;;;2.19;86.76;98407.03;5026253;28;20045;-55
2021/12/14 07:31:24;;;;;;;4.45;2.60;;;;;;;2.24;86.64;98411.84;5030601;28;20056;-55
2021/12/14 07:33:55;;;;;;;6.88;2.65;;;;;;;2.15;87.08;98403.88;5047500;28;20049;-58
2021/12/14 07:36:25;;;;;;;3.80;2.00;;;;;;;2.20;87.45;98406.00;5030114;28;20049;-58
2021/12/14 07:39:00;;;;;;;6.50;2.22;;;;;;;2.20;88.29;98412.19;5036977;28;20053;-58
2021/12/14 07:41:30;;;;;;;4.22;1.98;;;;;;;2.38;86.67;98400.44;5042889;28;20041;-58
2021/12/14 07:44:16;;;;;;;6.57;3.70;;;;;;;2.11;87.30;98388.34;5036738;28;20057;-60
2021/12/14 07:46:43;;;;;;;10.55;7.05;;;;;;;1.98;87.91;98396.91;5039725;28;20495;-58
2021/12/14 07:49:47;;;;;;;11.60;8.15;;;;;;;1.92;88.41;98387.72;5046992;28;20087;-56
2021/12/14 07:52:18;;;;;;;9.95;6.22;;;;;;;1.88;88.74;98381.06;5039623;28;20053;-57
2021/12/14 07:54:53;;;;;;;11.23;5.53;;;;;;;1.97;89.15;98388.06;5042531;28;20037;-57
2021/12/14 07:57:26;;;;;;;6.35;3.30;;;;;;;2.10;87.88;98406.19;5034828;28;20047;-56
2021/12/14 07:59:57;;;;;;;5.03;3.22;;;;;;;2.12;88.19;98414.88;5042550;28;20044;-55
2021/12/14 08:02:31;;;;;;;6.43;3.23;;;;;;;2.14;88.66;98415.53;5042674;28;20041;-55
2021/12/14 08:05:12;;;;;;;4.47;2.25;;;;;;;2.35;87.78;98459.56;5046403;28;20040;-58
2021/12/14 08:07:49;;;;;;;5.47;2.30;;;;;;;2.51;87.82;98469.38;5047021;28;20134;-50
2021/12/14 08:10:21;;;;;;;3.55;1.80;;;;;;;2.47;88.52;98466.22;5044136;28;20046;-55
2021/12/14 08:12:55;;;;;;;4.72;2.30;;;;;;;2.62;88.00;98478.03;5040674;28;20107;-55
2021/12/14 08:15:37;;;;;;;3.45;1.80;;;;;;;2.78;87.51;98487.84;5034190;28;20091;-62
2021/12/14 08:18:09;;;;;;;;;;;;;;;2.81;87.23;98508.88;5039067;28;20123;-62
2021/12/14 08:20:43;;;;;;;6.93;4.22;;;;;;;2.76;87.61;98497.88;5041199;28;20051;-62
2021/12/14 08:23:16;;;;;;;5.28;3.35;;;;;;;2.64;88.57;98476.84;5039180;28;20164;-63
2021/12/14 08:25:43;;;;;;;5.32;2.67;;;;;;;2.77;88.03;98488.84;5037230;28;20051;-60
2021/12/14 08:28:11;;;;;;;4.95;2.35;;;;;;;2.89;87.38;98481.25;5040378;28;20040;-65
2021/12/14 08:30:43;;;;;;;3.70;1.98;;;;;;;2.77;86.14;98475.47;5038552;28;20095;-63
2021/12/14 08:33:20;;;;;;;3.88;1.98;;;;;;;2.83;86.96;98470.25;5037410;28;20033;-63
2021/12/14 08:35:48;;;;;;;3.63;1.95;;;;;;;2.95;86.71;98462.66;5039208;28;20811;-63
2021/12/14 08:38:18;;;;;;;4.60;2.30;;;;;;;3.11;87.52;98463.59;5037313;28;20150;-61
2021/12/14 08:40:52;;;;;;;4.60;2.20;;;;;;;3.14;84.99;98452.53;5037220;28;20029;-61
2021/12/14 08:43:26;;;;;;;4.30;2.10;;;;;;;3.29;85.46;98460.63;5041509;28;20725;-64
2021/12/14 08:46:01;;;;;;;5.07;2.40;;;;;;;3.33;84.91;98461.09;5042206;28;20431;-63
2021/12/14 08:48:33;;;;;;;5.28;2.20;;;;;;;3.41;85.17;98462.88;5040422;28;20049;-60
2021/12/14 08:51:25;;;;;;;4.00;1.83;;;;;;;3.28;85.01;98461.63;5039863;28;20044;-63
2021/12/14 08:53:59;;;;;;;4.97;2.40;;;;;;;3.04;86.20;98457.28;5042752;28;20041;-64
2021/12/14 08:56:29;;;;;;;4.50;2.40;;;;;;;3.31;86.58;98468.50;5034939;28;20098;-64
2021/12/14 08:58:56;;;;;;;4.35;2.15;;;;;;;3.49;85.04;98470.84;5034606;28;20044;-59
2021/12/14 09:01:27;;;;;;;3.40;1.83;;;;;;;3.54;83.60;98489.06;5036834;28;20045;-61
2021/12/14 09:04:00;;;;;;;4.22;2.20;;;;;;;3.71;83.81;98492.44;5037210;28;20040;-63
2021/12/14 09:06:32;;;;;;;3.70;2.20;;;;;;;3.67;83.68;98481.28;5038705;28;20147;-65
2021/12/14 09:09:02;;;;;;;4.68;2.10;;;;;;;3.74;83.91;98481.38;5035805;28;20060;-64
2021/12/14 09:11:33;;;;;;;3.67;2.03;;;;;;;3.79;83.58;98468.28;5037605;28;20132;-62
2021/12/14 09:14:00;;;;;;;4.20;2.30;;;;;;;3.88;83.76;98466.38;5039975;28;20076;-62
2021/12/14 09:16:30;;;;;;;3.85;2.20;;;;;;;3.90;84.64;98473.19;5032522;28;20044;-63
2021/12/14 09:19:02;;;;;;;4.28;2.33;;;;;;;4.03;83.91;98469.06;5033511;28;20041;-64
2021/12/14 09:21:33;;;;;;;4.63;2.55;;;;;;;4.16;83.16;98477.31;5034440;28;20072;-63
2021/12/14 09:24:10;;;;;;;6.03;3.20;;;;;;;4.36;83.34;98475.94;5037572;28;20128;-63
2021/12/14 09:26:40;;;;;;;3.42;2.13;;;;;;;4.31;81.85;98473.81;5038868;28;20044;-64
2021/12/14 09:29:12;;;;;;;4.10;2.30;;;;;;;4.52;81.79;98480.28;5037583;28;20463;-65
2021/12/14 09:31:40;;;;;;;13.27;6.82;;;;;;;4.45;81.47;98477.50;5038747;28;20040;-64
2021/12/14 09:34:12;;;;;;;6.35;3.05;;;;;;;4.54;81.35;98480.94;5038871;28;20072;-64
2021/12/14 09:36:40;;;;;;;5.78;2.88;;;;;;;4.62;81.47;98480.84;5037190;28;20091;-63
2021/12/14 09:39:13;;;;;;;8.30;4.03;;;;;;;4.72;81.62;98485.09;5031220;28;20041;-61
2021/12/14 09:41:42;;;;;;;5.93;3.10;;;;;;;4.83;80.99;98476.56;5032154;28;20045;-63
2021/12/14 09:44:12;;;;;;;8.82;4.38;;;;;;;4.63;81.72;98473.63;5041643;28;20124;-62
2021/12/14 09:46:40;;;;;;;6.35;3.47;;;;;;;4.68;82.62;98472.03;5034162;28;20487;-64
2021/12/14 09:49:10;;;;;;;6.10;3.35;;;;;;;4.73;81.88;98479.56;5040517;28;20407;-64
2021/12/14 09:51:43;;;;;;;5.88;3.85;;;;;;;4.93;81.55;98481.63;5038966;28;20049;-60
2021/12/14 09:54:14;;;;;;;7.07;3.58;;;;;;;4.85;80.98;98487.09;5024405;28;20563;-60
2021/12/14 09:56:43;;;;;;;;;;;;;;;4.90;80.67;98477.47;5036917;28;20098;-61
2021/12/14 09:59:11;;;;;;;6.32;3.63;;;;;;;4.75;82.07;98482.88;5040289;28;19920;-64
2021/12/14 10:01:46;;;;;;;6.55;4.00;;;;;;;4.80;82.31;98475.06;5034144;28;20124;-64
2021/12/14 10:04:20;;;;;;;6.97;4.38;;;;;;;4.61;83.12;98479.16;5036441;28;20052;-63
2021/12/14 10:06:50;;;;;;;7.35;4.35;;;;;;;4.49;84.09;98486.03;5033294;28;20671;-61
2021/12/14 10:09:23;;;;;;;9.25;5.10;;;;;;;4.35;84.21;98493.06;5039411;28;20046;-59
2021/12/14 10:14:29;;;;;;;8.05;4.90;;;;;;;4.22;83.82;98482.94;5035492;28;20125;-63
2021/12/14 10:16:56;;;;;;;9.05;4.68;;;;;;;4.02;85.14;98478.94;5041496;28;20048;-61
2021/12/14 10:19:28;;;;;;;9.20;5.13;;;;;;;4.19;84.09;98484.16;5035746;28;20147;-62
2021/12/14 10:21:59;;;;;;;8.93;5.10;;;;;;;3.95;85.71;98486.06;5047107;28;20040;-62
2021/12/14 10:24:26;;;;;;;12.40;6.13;;;;;;;3.90;87.25;98481.25;5039702;28;20037;-62
2021/12/14 10:27:02;;;;;;;11.20;5.93;;;;;;;4.17;85.60;98483.53;5036171;28;20513;-60
2021/12/14 10:29:31;;;;;;;10.90;6.28;;;;;;;4.33;85.24;98474.47;5033644;28;20040;-61
2021/12/14 10:32:07;;;;;;;8.80;5.43;;;;;;;4.50;84.63;98469.75;5039711;28;20037;-61
2021/12/14 10:34:41;;;;;;;10.10;5.78;;;;;;;4.63;84.37;98469.09;5042973;28;20177;-63
2021/12/14 10:37:18;;;;;;;9.73;5.57;;;;;;;4.50;83.78;98468.94;5042459;28;20048;-61
2021/12/14 10:45:08;;;;;;;12.93;6.22;;;;;;;4.32;85.68;98480.00;5038635;28;20048;-61
2021/12/14 10:47:35;;;;;;;13.25;6.15;;;;;;;4.41;84.96;98471.69;5045934;28;20427;-64
2021/12/14 10:50:10;;;;;;;13.57;6.47;;;;;;;4.42;85.61;98470.66;5041872;28;20128;-59
2021/12/14 10:52:42;;;;;;;12.95;7.10;;;;;;;4.39;83.85;98483.63;5043089;28;20123;-59
2021/12/14 10:55:17;;;;;;;15.27;7.18;;;;;;;4.33;86.08;98477.16;5040251;28;20094;-59
2021/12/14 10:57:44;;;;;;;12.68;6.53;;;;;;;4.24;85.20;98478.25;5037427;28;20451;-60
2021/12/14 11:00:30;;;;;;;13.50;6.97;;;;;;;4.11;86.20;98473.50;5036794;28;20049;-60
2021/12/14 11:03:05;;;;;;;16.27;8.93;;;;;;;4.13;86.68;98469.63;5041971;28;20048;-60
2021/12/14 11:05:33;;;;;;;15.00;6.72;;;;;;;4.38;87.10;98464.00;5039302;28;20482;-60
2021/12/14 11:08:01;;;;;;;13.77;7.60;;;;;;;4.50;85.47;98479.66;5044480;28;20037;-61
2021/12/14 11:10:35;;;;;;;13.60;7.05;;;;;;;4.84;84.56;98472.03;5041529;28;20056;-64
2021/12/14 11:13:06;;;;;;;14.13;6.72;;;;;;;4.88;83.74;98478.69;5038131;28;20044;-62
2021/12/14 11:15:37;;;;;;;13.43;7.22;;;;;;;4.83;84.01;98492.66;5040985;28;20358;-64
2021/12/14 11:18:13;;;;;;;11.95;6.22;;;;;;;4.93;83.23;98479.78;5037535;28;20041;-60
2021/12/14 11:20:45;;;;;;;13.15;7.03;;;;;;;4.85;83.16;98473.69;5039243;28;20037;-63
2021/12/14 11:23:18;;;;;;;15.55;7.22;;;;;;;4.29;85.73;98463.28;5037536;28;20116;-65
2021/12/14 11:25:51;;;;;;;14.05;7.53;;;;;;;4.10;87.19;98467.34;5041453;28;20036;-64
2021/12/14 11:28:33;;;;;;;14.35;7.32;;;;;;;4.35;87.10;98461.69;5038958;28;20041;-62
2021/12/14 11:31:05;;;;;;;14.27;7.65;;;;;;;4.30;86.83;98456.06;5040518;28;20045;-62
2021/12/14 11:33:45;;;;;;;14.32;7.47;;;;;;;4.41;86.84;98466.34;5041229;28;20064;-63
2021/12/14 11:36:17;;;;;;;15.95;8.40;;;;;;;4.27;88.03;98468.00;5038237;28;20048;-62
2021/12/14 11:39:23;;;;;;;16.58;7.93;;;;;;;4.47;87.54;98461.25;5038630;28;20044;-62
2021/12/14 11:41:53;;;;;;;14.77;6.85;;;;;;;4.72;87.11;98466.31;5038266;28;20467;-64
2021/12/14 11:44:36;;;;;;;13.23;6.68;;;;;;;4.97;85.71;98469.50;5040336;28;20045;-59
2021/12/14 11:50:10;;;;;;;15.55;7.75;;;;;;;5.03;85.44;98449.97;5038086;28;20041;-61
2021/12/14 11:52:56;;;;;;;16.67;7.22;;;;;;;5.25;84.44;98451.84;5036652;28;20059;-61
2021/12/14 11:55:47;;;;;;;14.52;7.88;;;;;;;5.01;85.33;98454.69;5036193;28;20805;-64
2021/12/14 11:58:31;;;;;;;15.73;7.97;;;;;;;5.04;85.03;98457.00;5040631;28;20053;-64
2021/12/14 12:00:57;;;;;;;18.02;7.75;;;;;;;4.94;84.88;98459.97;5036813;28;20040;-60
2021/12/14 12:03:48;;;;;;;13.45;7.78;;;;;;;5.16;84.56;98462.69;5037276;28;20633;-62
2021/12/14 12:06:45;;;;;;;12.53;7.03;;;;;;;5.16;84.45;98462.69;5032783;28;20065;-60
2021/12/14 12:09:33;;;;;;;17.38;8.63;;;;;;;5.26;83.88;98458.88;5044837;28;20045;-60
2021/12/14 12:12:12;;;;;;;14.63;7.80;;;;;;;5.24;83.53;98456.41;5040869;28;20054;-60
2021/12/14 12:15:05;;;;;;;15.05;8.75;;;;;;;5.17;84.42;98447.44;5042056;28;20033;-64
2021/12/14 12:17:33;;;;;;;14.10;7.60;;;;;;;5.18;85.03;98443.72;5041698;28;20049;-64
2021/12/14 12:20:11;;;;;;;14.48;8.20;;;;;;;5.15;84.83;98458.34;5043636;28;20416;-63
2021/12/14 12:23:00;;;;;;;14.25;7.35;;;;;;;5.21;84.35;98448.72;5045175;28;20040;-62
2021/12/14 12:25:54;;;;;;;15.43;7.50;;;;;;;5.38;84.23;98451.97;5039633;28;20037;-61
2021/12/14 12:28:26;;;;;;;11.85;6.70;;;;;;;5.57;83.96;98441.63;5042188;28;20037;-66
2021/12/14 12:30:55;;;;;;;15.57;7.20;;;;;;;5.47;83.62;98441.94;5038950;28;20045;-66
2021/12/14 12:33:32;;;;;;;16.63;7.80;;;;;;;5.36;84.45;98429.84;5038727;28;20171;-66
2021/12/14 12:36:14;;;;;;;13.93;6.43;;;;;;;5.65;83.04;98427.22;5038209;28;20037;-66
2021/12/14 12:38:50;;;;;;;15.75;8.18;;;;;;;5.56;83.98;98429.19;5038228;28;20041;-66
2021/12/14 12:41:26;;;;;;;15.73;7.05;;;;;;;5.64;83.95;98423.69;5036533;28;20068;-66
2021/12/14 12:44:11;;;;;;;15.18;7.72;;;;;;;5.55;83.70;98428.38;5039328;28;20044;-66
2021/12/14 12:47:13;;;;;;;15.27;6.88;;;;;;;5.75;82.46;98438.44;5040068;28;20079;-61
2021/12/14 12:49:49;;;;;;;;;;;;;;;5.78;83.24;98432.69;5031077;28;20073;-65